createdAt,value
2018-06-05T00:02:42.727Z,80.34
2018-06-05T00:07:45.939Z,80.88
2018-06-05T00:12:49.045Z,80.75
2018-06-05T00:17:52.161Z,80.24
2018-06-05T00:22:55.368Z,79.62
2018-06-05T00:27:58.495Z,79.91
2018-06-05T00:33:01.743Z,79.81
2018-06-05T00:38:05.196Z,80.06
2018-06-05T00:43:08.619Z,81.03
2018-06-05T00:48:12.002Z,80.24
2018-06-05T00:53:15.711Z,80.86
2018-06-05T00:58:18.944Z,80.13
2018-06-05T01:03:22.321Z,80.05
2018-06-05T01:08:25.447Z,78.66
2018-06-05T01:13:28.601Z,79.67
2018-06-05T01:18:31.742Z,78.40
2018-06-05T01:23:34.970Z,78.18
2018-06-05T01:28:38.119Z,78.22
2018-06-05T01:33:41.299Z,77.85
2018-06-05T01:38:44.519Z,78.04
2018-06-05T01:43:47.748Z,77.59
2018-06-05T01:48:50.866Z,76.85
2018-06-05T01:53:54.208Z,77.19
2018-06-05T01:58:58.512Z,76.43
2018-06-05T02:04:01.915Z,75.66
2018-06-05T02:09:05.925Z,75.35
2018-06-05T02:14:09.111Z,75.54
2018-06-05T02:19:12.233Z,75.04
2018-06-05T02:24:15.799Z,75.38
2018-06-05T02:29:18.969Z,75.62
2018-06-05T02:34:22.460Z,75.43
2018-06-05T02:39:26.620Z,74.79
2018-06-05T02:44:29.934Z,75.36
2018-06-05T02:49:33.140Z,74.77
2018-06-05T02:54:36.402Z,74.55
2018-06-05T02:59:39.561Z,75.26
2018-06-05T03:04:42.700Z,73.74
2018-06-05T03:09:45.877Z,74.44
2018-06-05T03:14:49.513Z,73.12
2018-06-05T03:19:52.961Z,73.56
2018-06-05T03:24:56.341Z,73.90
2018-06-05T03:29:59.798Z,72.92
2018-06-05T03:35:03.370Z,72.59
2018-06-05T03:40:08.680Z,72.86
2018-06-05T03:45:16.730Z,72.64
2018-06-05T03:50:23.111Z,72.51
2018-06-05T03:55:26.740Z,72.92
2018-06-05T04:00:30.176Z,72.22
2018-06-05T04:05:33.364Z,71.84
2018-06-05T04:10:40.961Z,71.67
2018-06-05T04:15:44.194Z,71.44
2018-06-05T04:20:47.680Z,71.67
2018-06-05T04:25:50.975Z,70.88
2018-06-05T04:30:54.214Z,71.10
2018-06-05T04:36:05.592Z,71.62
2018-06-05T04:41:08.760Z,70.32
2018-06-05T04:46:12.060Z,69.69
2018-06-05T04:51:15.515Z,69.89
2018-06-05T04:56:18.835Z,69.55
2018-06-05T05:01:22.336Z,69.06
2018-06-05T05:06:27.390Z,69.69
2018-06-05T05:11:30.799Z,68.20
2018-06-05T05:16:33.965Z,67.59
2018-06-05T05:21:37.115Z,66.68
2018-06-05T05:26:40.431Z,66.76
2018-06-05T05:31:44.200Z,65.86
2018-06-05T05:36:47.333Z,64.91
2018-06-05T05:41:50.456Z,64.85
2018-06-05T05:46:53.724Z,64.40
2018-06-05T05:51:58.371Z,63.13
2018-06-05T05:57:01.607Z,63.85
2018-06-05T06:02:04.871Z,64.47
2018-06-05T06:07:07.993Z,64.84
2018-06-05T06:12:11.111Z,63.93
2018-06-05T06:17:14.337Z,64.25
2018-06-05T06:22:17.564Z,63.42
2018-06-05T06:27:20.711Z,63.26
2018-06-05T06:32:23.898Z,63.98
2018-06-05T06:37:28.190Z,63.32
2018-06-05T06:42:31.367Z,62.74
2018-06-05T06:47:34.488Z,63.14
2018-06-05T06:52:37.702Z,60.79
2018-06-05T06:57:41.037Z,61.52
2018-06-05T07:02:44.211Z,61.92
2018-06-05T07:07:47.320Z,61.34
2018-06-05T07:12:50.436Z,60.94
2018-06-05T07:17:53.571Z,59.65
2018-06-05T07:22:56.869Z,57.77
2018-06-05T07:28:00.076Z,57.62
2018-06-05T07:33:03.583Z,57.26
2018-06-05T07:38:06.776Z,57.10
2018-06-05T07:43:09.950Z,55.68
2018-06-05T07:48:13.139Z,54.90
2018-06-05T07:53:16.307Z,53.76
2018-06-05T07:58:20.135Z,51.98
2018-06-05T08:03:23.210Z,51.66
2018-06-05T08:08:26.427Z,51.12
2018-06-05T08:13:29.593Z,50.91
2018-06-05T08:18:32.794Z,49.51
2018-06-05T08:23:35.983Z,50.77
2018-06-05T08:28:39.141Z,52.57
2018-06-05T08:33:42.247Z,50.78
2018-06-05T08:38:45.424Z,52.75
2018-06-05T08:43:48.555Z,49.28
2018-06-05T08:48:52.205Z,49.45
2018-06-05T08:53:55.404Z,46.65
2018-06-05T08:58:58.678Z,44.85
2018-06-05T09:04:01.910Z,44.44
2018-06-05T09:09:07.381Z,43.76
2018-06-05T09:14:10.543Z,43.70
2018-06-05T09:19:13.645Z,43.59
2018-06-05T09:24:16.816Z,42.09
2018-06-05T09:29:19.969Z,43.68
2018-06-05T09:34:23.121Z,43.98
2018-06-05T09:39:26.280Z,42.95
2018-06-05T09:44:29.470Z,37.55
2018-06-05T09:49:32.717Z,31.56
2018-06-05T09:54:35.996Z,31.91
2018-06-05T09:59:39.096Z,34.31
2018-06-05T10:04:42.252Z,35.42
2018-06-05T10:09:45.715Z,33.90
2018-06-05T10:14:49.041Z,35.94
2018-06-05T10:19:52.185Z,34.79
2018-06-05T10:24:55.444Z,33.67
2018-06-05T10:29:58.765Z,33.06
2018-06-05T10:35:02.198Z,34.09
2018-06-05T10:40:05.320Z,36.55
2018-06-05T10:45:08.442Z,39.31
2018-06-05T10:50:11.573Z,32.75
2018-06-05T10:55:14.707Z,35.64
2018-06-05T11:00:17.896Z,34.92
2018-06-05T11:05:20.981Z,36.01
2018-06-05T11:10:24.158Z,37.81
2018-06-05T11:15:27.408Z,38.04
2018-06-05T11:20:37.738Z,34.73
2018-06-05T11:25:41.069Z,37.50
2018-06-05T11:30:44.443Z,35.85
2018-06-05T11:35:47.800Z,36.39
2018-06-05T11:40:51.203Z,37.26
2018-06-05T11:45:54.301Z,41.50
2018-06-05T11:50:57.944Z,43.02
2018-06-05T11:56:01.247Z,48.07
2018-06-05T12:01:04.397Z,44.19
2018-06-05T12:06:07.848Z,44.46
2018-06-05T12:11:10.994Z,43.57
2018-06-05T12:16:14.134Z,41.37
2018-06-05T12:21:17.492Z,44.56
2018-06-05T12:26:20.872Z,45.83
2018-06-05T12:31:24.787Z,44.65
2018-06-05T12:36:28.174Z,44.62
2018-06-05T12:41:31.319Z,44.94
2018-06-05T12:46:34.485Z,43.97
2018-06-05T12:51:37.743Z,43.89
2018-06-05T12:56:40.885Z,41.07
2018-06-05T13:01:44.026Z,40.72
2018-06-05T13:06:47.259Z,42.72
2018-06-05T13:11:50.623Z,42.28
2018-06-05T13:16:53.909Z,43.44
2018-06-05T13:21:57.621Z,43.96
2018-06-05T13:27:03.450Z,44.29
2018-06-05T13:32:06.943Z,41.05
2018-06-05T13:37:10.628Z,39.62
2018-06-05T13:42:14.036Z,39.79
2018-06-05T13:47:17.125Z,40.49
2018-06-05T13:52:20.314Z,39.37
2018-06-05T13:57:23.498Z,38.38
2018-06-05T14:02:26.661Z,40.25
2018-06-05T14:07:29.829Z,38.46
2018-06-05T14:12:33.293Z,37.14
2018-06-05T14:17:36.503Z,37.29
2018-06-05T14:22:39.686Z,38.66
2018-06-05T14:27:42.858Z,38.57
2018-06-05T14:32:46.001Z,38.48
2018-06-05T14:37:49.095Z,38.32
2018-06-05T14:42:52.234Z,38.96
2018-06-05T14:47:55.335Z,37.99
2018-06-05T14:52:58.430Z,40.46
2018-06-05T14:58:01.752Z,41.69
2018-06-05T15:03:05.303Z,40.23
2018-06-05T15:08:08.921Z,38.04
2018-06-05T15:13:12.155Z,37.33
2018-06-05T15:18:15.278Z,39.55
2018-06-05T15:23:19.062Z,37.19
2018-06-05T15:28:22.187Z,38.22
2018-06-05T15:33:25.287Z,37.31
2018-06-05T15:38:28.440Z,38.49
2018-06-05T15:43:31.563Z,38.11
2018-06-05T15:48:34.671Z,36.44
2018-06-05T15:53:39.861Z,35.41
2018-06-05T15:58:43.050Z,34.24
2018-06-05T16:03:46.275Z,36.17
2018-06-05T16:08:49.520Z,36.45
2018-06-05T16:13:52.776Z,37.94
2018-06-05T16:18:56.020Z,39.39
2018-06-05T16:23:59.126Z,37.91
2018-06-05T16:29:03.425Z,37.13
2018-06-05T16:34:06.561Z,36.68
2018-06-05T16:39:09.687Z,39.15
2018-06-05T16:44:12.820Z,39.31
2018-06-05T16:49:16.522Z,39.53
2018-06-05T16:54:19.781Z,39.98
2018-06-05T16:59:22.976Z,39.64
2018-06-05T17:04:26.282Z,40.04
2018-06-05T17:09:29.482Z,40.63
2018-06-05T17:14:32.639Z,40.68
2018-06-05T17:19:35.768Z,40.04
2018-06-05T17:24:39.451Z,37.50
2018-06-05T17:29:42.638Z,38.71
2018-06-05T17:34:46.747Z,38.19
2018-06-05T17:39:49.942Z,39.21
2018-06-05T17:44:53.206Z,40.03
2018-06-05T17:49:56.470Z,41.71
2018-06-05T17:54:59.685Z,43.57
2018-06-05T18:00:03.083Z,45.19
2018-06-05T18:05:06.256Z,43.13
2018-06-05T18:10:09.603Z,44.01
2018-06-05T18:15:12.711Z,43.96
2018-06-05T18:20:16.091Z,45.59
2018-06-05T18:25:19.423Z,46.35
2018-06-05T18:30:22.904Z,45.63
2018-06-05T18:35:26.521Z,48.14
2018-06-05T18:40:30.454Z,47.07
2018-06-05T18:45:33.615Z,46.90
2018-06-05T18:50:36.708Z,43.04
2018-06-05T18:55:42.343Z,38.91
2018-06-05T19:00:45.661Z,39.46
2018-06-05T19:05:58.075Z,36.61
2018-06-05T19:11:02.011Z,35.65
2018-06-05T19:16:06.453Z,35.41
2018-06-05T19:21:11.497Z,35.63
2018-06-05T19:26:15.030Z,36.44
2018-06-05T19:31:19.434Z,35.22
2018-06-05T19:36:24.892Z,35.25
2018-06-05T19:41:41.107Z,35.75
2018-06-05T19:46:49.767Z,35.22
2018-06-05T19:51:54.038Z,34.79
2018-06-05T19:56:57.841Z,32.38
2018-06-05T20:02:01.306Z,31.13
2018-06-05T20:07:04.465Z,29.73
2018-06-05T20:12:09.774Z,30.41
2018-06-05T20:17:40.011Z,30.65
2018-06-05T20:23:08.551Z,29.11
2018-06-05T20:28:35.564Z,29.55
2018-06-05T20:34:05.575Z,29.08
2018-06-05T20:39:37.445Z,29.44
2018-06-05T20:45:00.803Z,28.04
2018-06-05T20:50:26.413Z,27.35
2018-06-05T20:55:52.385Z,27.12
2018-06-05T21:01:16.434Z,28.14
2018-06-05T21:06:20.681Z,29.09
2018-06-05T21:11:23.886Z,29.84
2018-06-05T21:16:27.105Z,31.10
2018-06-05T21:21:31.784Z,30.76
2018-06-05T21:26:34.867Z,32.11
2018-06-05T21:31:37.993Z,32.50
2018-06-05T21:36:41.123Z,33.29
2018-06-05T21:41:44.320Z,35.01
2018-06-05T21:46:47.596Z,34.75
2018-06-05T21:51:50.780Z,36.63
2018-06-05T21:56:53.955Z,37.60
2018-06-05T22:01:57.157Z,38.26
2018-06-05T22:07:00.236Z,38.63
2018-06-05T22:12:03.400Z,41.00
2018-06-05T22:17:06.592Z,41.29
2018-06-05T22:22:09.694Z,41.68
2018-06-05T22:27:12.786Z,42.96
2018-06-05T22:32:16.045Z,43.73
2018-06-05T22:37:19.374Z,43.63
2018-06-05T22:42:22.593Z,44.58
2018-06-05T22:47:25.717Z,45.47
2018-06-05T22:52:29.001Z,46.47
2018-06-05T22:57:32.151Z,48.63
2018-06-05T23:02:35.369Z,48.37
2018-06-05T23:07:38.533Z,49.96
2018-06-05T23:12:41.674Z,49.23
2018-06-05T23:17:44.917Z,49.08
2018-06-05T23:22:48.371Z,48.59
2018-06-05T23:27:51.743Z,48.64
2018-06-05T23:32:55.765Z,49.48
2018-06-05T23:37:58.942Z,49.57
2018-06-05T23:43:02.146Z,49.69
2018-06-05T23:48:05.335Z,50.00
2018-06-05T23:53:08.479Z,50.08
2018-06-05T23:58:11.639Z,50.40
